createdAt,value
2023-05-09T00:01:12.330Z,100638
2023-05-09T00:07:05.310Z,100634
2023-05-09T00:12:57.340Z,100626
2023-05-09T00:18:49.877Z,100623
2023-05-09T00:24:42.010Z,100618
2023-05-09T00:30:37.776Z,100613
2023-05-09T00:36:30.693Z,100611
2023-05-09T00:42:21.822Z,100609
2023-05-09T00:48:16.289Z,100606
2023-05-09T00:54:10.733Z,100596
2023-05-09T01:00:02.491Z,100587
2023-05-09T01:05:54.710Z,100587
2023-05-09T01:11:46.854Z,100577
2023-05-09T01:17:39.456Z,100579
2023-05-09T01:23:32.224Z,100567
2023-05-09T01:29:24.469Z,100572
2023-05-09T01:35:18.733Z,100573
2023-05-09T01:41:11.403Z,100559
2023-05-09T01:47:07.079Z,100556
2023-05-09T01:53:01.131Z,100546
2023-05-09T01:58:52.721Z,100556
2023-05-09T02:04:44.185Z,100553
2023-05-09T02:10:37.432Z,100555
2023-05-09T02:16:31.088Z,100557
2023-05-09T02:22:22.873Z,100552
2023-05-09T02:28:14.671Z,100548
2023-05-09T02:34:08.313Z,100539
2023-05-09T02:40:11.200Z,100540
2023-05-09T02:46:03.297Z,100542
2023-05-09T02:51:55.826Z,100532
2023-05-09T02:57:51.900Z,100523
2023-05-09T03:04:01.949Z,100523
2023-05-09T03:09:58.220Z,100514
2023-05-09T03:15:49.424Z,100505
2023-05-09T03:21:42.108Z,100499
2023-05-09T03:27:33.813Z,100489
2023-05-09T03:33:26.999Z,100492
2023-05-09T03:39:20.128Z,100491
2023-05-09T03:45:12.550Z,100486
2023-05-09T03:51:06.556Z,100479
2023-05-09T03:56:57.994Z,100478
2023-05-09T04:02:50.347Z,100472
2023-05-09T04:08:51.640Z,100472
2023-05-09T04:14:42.990Z,100470
2023-05-09T04:20:37.608Z,100472
2023-05-09T04:26:32.276Z,100462
2023-05-09T04:32:24.392Z,100455
2023-05-09T04:38:17.920Z,100452
2023-05-09T04:44:13.822Z,100450
2023-05-09T04:50:04.684Z,100448
2023-05-09T04:55:58.366Z,100437
2023-05-09T05:01:48.391Z,100435
2023-05-09T05:07:41.042Z,100443
2023-05-09T05:13:31.982Z,100429
2023-05-09T05:19:24.233Z,100426
2023-05-09T05:25:17.727Z,100411
2023-05-09T05:31:08.709Z,100413
2023-05-09T05:37:00.590Z,100416
2023-05-09T05:42:54.026Z,100423
2023-05-09T05:48:46.383Z,100403
2023-05-09T05:54:37.991Z,100407
2023-05-09T06:00:29.546Z,100407
2023-05-09T06:06:21.123Z,100400
2023-05-09T06:12:12.121Z,100384
2023-05-09T06:18:04.262Z,100384
2023-05-09T06:24:20.097Z,100380
2023-05-09T06:30:31.809Z,100382
2023-05-09T06:36:22.185Z,100378
2023-05-09T06:42:12.499Z,100377
2023-05-09T06:48:05.396Z,100361
2023-05-09T06:53:57.340Z,100358
2023-05-09T06:59:49.618Z,100356
2023-05-09T07:05:43.368Z,100345
2023-05-09T07:11:36.713Z,100342
2023-05-09T07:17:30.238Z,100326
2023-05-09T07:23:21.174Z,100310
2023-05-09T07:29:12.128Z,100305
2023-05-09T07:35:03.339Z,100305
2023-05-09T07:40:55.327Z,100294
2023-05-09T07:46:49.224Z,100296
2023-05-09T07:52:42.373Z,100286
2023-05-09T07:58:34.990Z,100277
2023-05-09T08:04:27.627Z,100268
2023-05-09T08:10:19.611Z,100268
2023-05-09T08:16:11.825Z,100250
2023-05-09T08:22:09.302Z,100247
2023-05-09T08:28:01.921Z,100236
2023-05-09T08:33:54.010Z,100228
2023-05-09T08:39:46.212Z,100226
2023-05-09T08:45:38.942Z,100211
2023-05-09T08:51:32.059Z,100213
2023-05-09T08:57:26.702Z,100211
2023-05-09T09:03:18.769Z,100201
2023-05-09T09:09:11.031Z,100189
2023-05-09T09:15:02.507Z,100179
2023-05-09T09:20:59.172Z,100172
2023-05-09T09:26:50.702Z,100171
2023-05-09T09:32:42.772Z,100171
2023-05-09T09:39:44.329Z,100152
2023-05-09T09:45:35.968Z,100150
2023-05-09T09:51:29.000Z,100139
2023-05-09T09:57:20.391Z,100123
2023-05-09T10:03:12.561Z,100120
2023-05-09T10:09:04.979Z,100116
2023-05-09T10:14:57.066Z,100099
2023-05-09T10:20:49.630Z,100100
2023-05-09T10:26:41.401Z,100092
2023-05-09T10:32:33.927Z,100073
2023-05-09T10:38:26.036Z,100067
2023-05-09T10:44:19.357Z,100060
2023-05-09T10:50:11.483Z,100051
2023-05-09T10:56:02.780Z,100031
2023-05-09T11:01:55.618Z,100026
2023-05-09T11:07:49.379Z,100017
2023-05-09T11:13:41.984Z,100004
2023-05-09T11:19:34.562Z,99996
2023-05-09T11:25:26.066Z,99987
2023-05-09T11:31:19.534Z,99983
2023-05-09T11:37:12.827Z,99975
2023-05-09T11:43:07.920Z,99969
2023-05-09T12:05:19.001Z,99932
2023-05-09T12:11:11.068Z,99923
2023-05-09T12:17:03.125Z,99916
2023-05-09T12:22:55.186Z,99907
2023-05-09T12:29:12.890Z,99898
2023-05-09T12:35:23.490Z,99892
2023-05-09T12:42:00.871Z,99886
2023-05-09T12:47:52.982Z,99869
2023-05-09T12:53:46.800Z,99856
2023-05-09T12:59:40.905Z,99853
2023-05-09T13:05:33.564Z,99862
2023-05-09T13:11:27.030Z,99840
2023-05-09T13:17:19.577Z,99832
2023-05-09T13:23:11.916Z,99827
2023-05-09T13:29:03.971Z,99814
2023-05-09T13:34:56.796Z,99808
2023-05-09T13:40:49.576Z,99798
2023-05-09T13:46:45.275Z,99795
2023-05-09T13:52:37.403Z,99791
2023-05-09T13:58:30.122Z,99788
2023-05-09T14:04:22.287Z,99783
2023-05-09T14:10:16.454Z,99772
2023-05-09T14:16:09.518Z,99769
2023-05-09T14:22:02.361Z,99756
2023-05-09T14:27:56.602Z,99751
2023-05-09T14:33:47.673Z,99746
2023-05-09T14:39:42.245Z,99741
2023-05-09T14:45:34.049Z,99741
2023-05-09T14:51:26.249Z,99744
2023-05-09T14:57:20.195Z,99750
2023-05-09T15:03:11.373Z,99739
2023-05-09T15:09:04.844Z,99740
2023-05-09T15:14:56.039Z,99730
2023-05-09T15:20:47.367Z,99742
2023-05-09T15:26:39.730Z,99748
2023-05-09T15:32:32.254Z,99741
2023-05-09T15:38:24.158Z,99726
2023-05-09T15:44:16.777Z,99723
2023-05-09T15:50:08.363Z,99729
2023-05-09T15:56:01.284Z,99736
2023-05-09T16:01:55.788Z,99730
2023-05-09T16:07:49.769Z,99724
2023-05-09T16:13:41.869Z,99729
2023-05-09T16:19:37.378Z,99725
2023-05-09T16:25:29.201Z,99719
2023-05-09T16:31:24.683Z,99716
2023-05-09T16:37:16.689Z,99709
2023-05-09T16:43:07.799Z,99702
2023-05-09T16:49:00.127Z,99700
2023-05-09T16:54:52.528Z,99701
2023-05-09T17:00:45.825Z,99704
2023-05-09T17:06:38.764Z,99699
2023-05-09T17:12:31.338Z,99704
2023-05-09T17:18:40.701Z,99694
2023-05-09T17:24:33.002Z,99698
2023-05-09T17:30:29.499Z,99694
2023-05-09T17:36:30.948Z,99686
2023-05-09T17:42:23.425Z,99678
2023-05-09T17:48:20.086Z,99671
2023-05-09T17:54:12.559Z,99672
2023-05-09T18:00:03.876Z,99661
2023-05-09T18:05:55.568Z,99654
2023-05-09T18:11:51.417Z,99652
2023-05-09T18:18:01.089Z,99643
2023-05-09T18:23:54.790Z,99650
2023-05-09T18:29:47.202Z,99643
2023-05-09T18:35:40.167Z,99637
2023-05-09T18:41:32.212Z,99642
2023-05-09T18:47:25.178Z,99645
2023-05-09T18:53:18.114Z,99651
2023-05-09T18:59:11.078Z,99649
2023-05-09T19:05:02.599Z,99644
2023-05-09T19:10:59.411Z,99640
2023-05-09T19:16:54.627Z,99640
2023-05-09T19:22:47.088Z,99647
2023-05-09T19:28:39.109Z,99648
2023-05-09T19:35:41.492Z,99656
2023-05-09T19:43:54.960Z,99656
2023-05-09T19:49:44.513Z,99662
2023-05-09T19:55:40.619Z,99664
2023-05-09T20:01:34.123Z,99663
2023-05-09T20:07:25.215Z,99669
2023-05-09T20:13:21.561Z,99669
2023-05-09T20:19:17.335Z,99662
2023-05-09T20:27:30.797Z,99669
2023-05-09T20:33:21.743Z,99670
2023-05-09T20:39:19.737Z,99669
2023-05-09T20:45:18.532Z,99677
2023-05-09T20:51:08.916Z,99683
2023-05-09T20:57:02.394Z,99683
2023-05-09T21:02:53.831Z,99689
2023-05-09T21:08:48.931Z,99684
2023-05-09T21:14:39.768Z,99694
2023-05-09T21:20:30.871Z,99701
2023-05-09T21:26:24.288Z,99695
2023-05-09T21:32:15.902Z,99702
2023-05-09T21:38:08.767Z,99697
2023-05-09T21:43:59.696Z,99695
2023-05-09T21:49:56.536Z,99693
2023-05-09T21:55:49.340Z,99698
2023-05-09T22:01:40.733Z,99694
2023-05-09T22:07:37.350Z,99700
2023-05-09T22:13:27.749Z,99694
2023-05-09T22:19:22.670Z,99700
2023-05-09T22:25:12.329Z,99706
2023-05-09T22:31:04.640Z,99703
2023-05-09T22:36:55.081Z,99700
2023-05-09T22:42:51.835Z,99704
2023-05-09T22:48:43.374Z,99702
2023-05-09T22:54:37.720Z,99703
2023-05-09T23:00:31.964Z,99702
2023-05-09T23:06:24.170Z,99706
2023-05-09T23:12:15.468Z,99702
2023-05-09T23:18:07.580Z,99702
2023-05-09T23:23:59.532Z,99692
2023-05-09T23:29:52.045Z,99705
2023-05-09T23:35:44.223Z,99705
2023-05-09T23:41:36.475Z,99705
2023-05-09T23:47:29.228Z,99706
2023-05-09T23:53:21.548Z,99705
2023-05-09T23:59:13.572Z,99698
